Terminal Aerodrome Forecast
Issued by NWS

Home | Current Version | Previous Version | Graphics & Text | Print | Product List | Glossary On
Versions: 1 2 3 4 5 6 7 8 9 10 11 12 13 14 15 16 17 18 19 20 21 22 23 24 25 26 27 28 29
000
FTUS42 KMHX 052031 AAB
TAFOAJ
TAF AMD
KOAJ 052031Z 0521/0618 VRB04KT P6SM SHRA VCTS SCT025 BKN120CB
      TEMPO 0521/0522 5SM RA BKN009
     FM060200 28007KT P6SM VCSH BKN015
     FM060500 28006KT 6SM BR OVC007
     FM061600 29007KT P6SM BKN020
      AMD LTD TO CLD VIS AND WIND=

USA.gov is the U.S. government's official web portal to all federal, state and local government web resources and services.